createdAt,value
2019-02-16T00:04:37.476Z,82.80
2019-02-16T00:09:42.595Z,73.03
2019-02-16T00:14:47.606Z,71.60
2019-02-16T00:19:52.682Z,62.20
2019-02-16T00:24:57.691Z,51.23
2019-02-16T00:30:02.710Z,52.10
2019-02-16T00:35:07.735Z,52.23
2019-02-16T00:40:12.781Z,52.43
2019-02-16T00:45:17.789Z,52.73
2019-02-16T00:50:22.837Z,53.60
2019-02-16T00:55:27.863Z,41.17
2019-02-16T01:00:32.876Z,43.23
2019-02-16T01:05:37.880Z,39.13
2019-02-16T01:10:44.776Z,34.93
2019-02-16T01:15:49.750Z,23.67
2019-02-16T01:20:54.814Z,19.73
2019-02-16T01:25:59.835Z,27.00
2019-02-16T01:31:04.841Z,41.03
2019-02-16T01:36:09.857Z,60.43
2019-02-16T01:41:14.876Z,58.90
2019-02-16T01:46:19.902Z,53.60
2019-02-16T01:51:31.643Z,31.97
2019-02-16T01:56:31.690Z,14.77
2019-02-16T02:01:36.757Z,12.63
2019-02-16T02:06:41.843Z,10.20
2019-02-16T02:11:46.860Z,11.67
2019-02-16T02:16:51.878Z,11.70
2019-02-16T02:21:56.884Z,12.27
2019-02-16T02:27:01.889Z,12.90
2019-02-16T02:32:06.928Z,16.00
2019-02-16T02:37:11.978Z,18.93
2019-02-16T02:42:17.028Z,23.70
2019-02-16T02:47:22.068Z,24.50
2019-02-16T02:52:27.079Z,30.00
2019-02-16T02:57:32.112Z,32.00
2019-02-16T03:02:37.153Z,35.60
2019-02-16T03:07:42.204Z,31.40
2019-02-16T03:12:47.209Z,31.20
2019-02-16T03:17:52.212Z,35.63
2019-02-16T03:23:17.132Z,35.80
2019-02-16T03:28:34.481Z,32.73
2019-02-16T03:33:50.581Z,33.17
2019-02-16T03:39:06.993Z,34.40
2019-02-16T03:44:12.060Z,33.33
2019-02-16T03:49:17.349Z,33.03
2019-02-16T03:54:22.366Z,31.63
2019-02-16T03:59:27.457Z,27.60
2019-02-16T04:04:32.476Z,27.33
2019-02-16T04:09:37.549Z,24.07
2019-02-16T04:14:42.586Z,23.83
2019-02-16T04:19:47.654Z,21.43
2019-02-16T04:24:54.541Z,19.63
2019-02-16T04:29:59.607Z,16.43
2019-02-16T04:35:04.756Z,14.13
2019-02-16T04:40:09.803Z,13.93
2019-02-16T04:45:14.887Z,13.77
2019-02-16T04:50:19.898Z,13.07
2019-02-16T04:55:24.961Z,12.37
2019-02-16T05:00:29.997Z,12.57
2019-02-16T05:05:35.021Z,13.20
2019-02-16T05:10:40.037Z,11.03
2019-02-16T05:15:45.050Z,10.90
2019-02-16T05:20:50.068Z,12.17
2019-02-16T05:25:55.174Z,12.87
2019-02-16T05:31:00.302Z,12.87
2019-02-16T05:36:05.318Z,12.67
2019-02-16T05:41:10.394Z,12.10
2019-02-16T05:46:15.404Z,13.73
2019-02-16T05:51:20.421Z,13.60
2019-02-16T05:56:25.452Z,16.37
2019-02-16T06:01:30.470Z,18.60
2019-02-16T06:06:35.474Z,19.70
2019-02-16T06:11:40.498Z,19.37
2019-02-16T06:16:45.509Z,22.70
2019-02-16T06:21:50.525Z,27.63
2019-02-16T06:26:55.521Z,28.57
2019-02-16T06:32:00.534Z,28.17
2019-02-16T06:37:21.354Z,27.40
2019-02-16T06:42:26.436Z,28.10
2019-02-16T06:47:31.461Z,26.10
2019-02-16T06:52:36.502Z,25.17
2019-02-16T06:57:45.034Z,24.93
2019-02-16T07:02:50.044Z,23.37
2019-02-16T07:07:55.052Z,25.17
2019-02-16T07:13:00.067Z,30.70
2019-02-16T07:18:36.265Z,29.63
2019-02-16T07:23:41.290Z,31.10
2019-02-16T07:28:46.313Z,33.10
2019-02-16T07:33:51.313Z,32.37
2019-02-16T07:38:56.324Z,34.10
2019-02-16T07:44:23.365Z,34.10
2019-02-16T07:49:34.877Z,31.63
2019-02-16T07:54:50.068Z,31.67
2019-02-16T08:00:08.632Z,33.37
2019-02-16T08:05:20.436Z,33.60
2019-02-16T08:10:47.421Z,31.23
2019-02-16T08:16:10.220Z,32.20
2019-02-16T08:21:22.311Z,35.17
2019-02-16T08:26:44.581Z,31.80
2019-02-16T08:31:59.155Z,28.07
2019-02-16T08:37:20.781Z,29.63
2019-02-16T08:42:47.963Z,25.63
2019-02-16T08:48:17.976Z,25.30
2019-02-16T08:53:53.952Z,24.43
2019-02-16T08:59:23.979Z,26.33
2019-02-16T09:04:38.481Z,26.77
2019-02-16T09:10:04.455Z,28.90
2019-02-16T09:15:34.266Z,28.77
2019-02-16T09:21:01.250Z,28.83
2019-02-16T09:26:27.974Z,27.90
2019-02-16T09:31:50.525Z,25.27
2019-02-16T09:37:13.140Z,24.67
2019-02-16T09:42:33.632Z,24.40
2019-02-16T09:47:46.683Z,23.77
2019-02-16T09:53:12.640Z,26.73
2019-02-16T09:58:33.029Z,25.63
2019-02-16T10:04:06.068Z,28.33
2019-02-16T10:09:28.602Z,27.13
2019-02-16T10:14:58.615Z,28.10
2019-02-16T10:20:14.342Z,29.23
2019-02-16T10:25:30.795Z,30.57
2019-02-16T10:30:43.196Z,29.03
2019-02-16T10:36:04.239Z,28.60
2019-02-16T10:41:20.030Z,26.67
2019-02-16T10:46:42.541Z,25.63
2019-02-16T10:52:13.037Z,25.03
2019-02-16T10:57:35.828Z,25.17
2019-02-16T11:02:58.300Z,27.13
2019-02-16T11:08:20.842Z,30.00
2019-02-16T11:13:57.069Z,27.80
2019-02-16T11:19:27.301Z,26.93
2019-02-16T11:24:51.273Z,26.80
2019-02-16T11:30:09.853Z,27.10
2019-02-16T11:35:40.429Z,26.37
2019-02-16T11:41:19.704Z,25.40
2019-02-16T11:46:45.497Z,24.90
2019-02-16T11:52:08.491Z,25.33
2019-02-16T11:57:32.445Z,25.57
2019-02-16T12:02:45.805Z,24.80
2019-02-16T12:08:05.602Z,24.93
2019-02-16T12:13:32.708Z,24.77
2019-02-16T12:19:02.597Z,25.13
2019-02-16T12:24:30.816Z,24.87
2019-02-16T12:29:47.845Z,23.80
2019-02-16T12:35:17.905Z,25.13
2019-02-16T12:40:30.817Z,23.83
2019-02-16T12:45:50.957Z,24.13
2019-02-16T12:51:26.266Z,23.63
2019-02-16T12:57:02.493Z,24.57
2019-02-16T13:02:30.577Z,27.67
2019-02-16T13:07:50.368Z,25.73
2019-02-16T13:13:14.334Z,26.60
2019-02-16T13:18:38.296Z,27.47
2019-02-16T13:23:54.578Z,26.23
2019-02-16T13:29:08.964Z,23.73
2019-02-16T13:34:19.495Z,24.63
2019-02-16T13:39:49.341Z,24.50
2019-02-16T13:45:28.249Z,26.83
2019-02-16T13:50:55.379Z,24.53
2019-02-16T13:56:09.770Z,30.77
2019-02-16T14:01:34.826Z,23.67
2019-02-16T14:06:51.136Z,24.33
2019-02-16T14:12:14.009Z,26.37
2019-02-16T14:17:40.750Z,23.07
2019-02-16T14:22:45.769Z,24.97
2019-02-16T14:27:50.772Z,24.03
2019-02-16T14:32:55.769Z,25.70
2019-02-16T14:38:22.497Z,27.63
2019-02-16T14:43:27.495Z,23.83
2019-02-16T14:48:32.528Z,24.67
2019-02-16T14:53:37.521Z,24.40
2019-02-16T14:58:44.855Z,24.80
2019-02-16T15:03:49.856Z,25.27
2019-02-16T15:08:54.871Z,24.47
2019-02-16T15:13:59.934Z,27.20
2019-02-16T15:19:04.927Z,24.17
2019-02-16T15:24:09.961Z,26.27
2019-02-16T15:29:15.173Z,23.63
2019-02-16T15:34:20.223Z,24.10
2019-02-16T15:39:25.805Z,26.13
2019-02-16T15:44:30.920Z,25.10
2019-02-16T15:49:36.053Z,26.33
2019-02-16T15:54:41.126Z,26.47
2019-02-16T15:59:46.416Z,28.10
2019-02-16T16:04:51.424Z,29.00
2019-02-16T16:10:15.491Z,29.90
2019-02-16T16:15:46.045Z,29.80
2019-02-16T16:21:02.008Z,32.47
2019-02-16T16:26:23.748Z,33.60
2019-02-16T16:31:33.424Z,34.33
2019-02-16T16:37:00.582Z,33.30
2019-02-16T16:42:18.544Z,32.30
2019-02-16T16:47:47.902Z,30.40
2019-02-16T16:53:19.368Z,32.13
2019-02-16T16:58:41.840Z,30.17
2019-02-16T17:04:05.770Z,30.43
2019-02-16T17:09:42.402Z,33.33
2019-02-16T17:15:09.256Z,35.50
2019-02-16T17:20:36.214Z,33.90
2019-02-16T17:25:56.716Z,36.43
2019-02-16T17:31:09.365Z,36.23
2019-02-16T17:36:31.903Z,40.30
2019-02-16T17:42:01.885Z,40.60
2019-02-16T17:47:28.932Z,46.40
2019-02-16T17:52:51.668Z,44.77
2019-02-16T17:58:04.429Z,44.57
2019-02-16T18:03:23.405Z,48.50
2019-02-16T18:08:46.635Z,48.53
2019-02-16T18:14:10.543Z,49.53
2019-02-16T18:19:29.806Z,51.37
2019-02-16T18:25:02.577Z,48.20
2019-02-16T18:30:19.024Z,49.20
2019-02-16T18:35:44.026Z,50.13
2019-02-16T18:41:05.139Z,49.17
2019-02-16T18:46:32.214Z,54.40
2019-02-16T18:51:53.853Z,54.93
2019-02-16T18:57:17.117Z,52.40
2019-02-16T19:02:38.100Z,56.37
2019-02-16T19:08:04.795Z,56.37
2019-02-16T19:13:37.937Z,54.10
2019-02-16T19:19:10.454Z,53.97
2019-02-16T19:24:31.070Z,58.57
2019-02-16T19:29:54.744Z,55.90
2019-02-16T19:35:17.277Z,61.90
2019-02-16T19:40:33.517Z,61.67
2019-02-16T19:45:56.217Z,59.80
2019-02-16T19:51:20.195Z,63.50
2019-02-16T19:56:29.531Z,59.47
2019-02-16T20:01:52.941Z,58.67
2019-02-16T20:07:11.193Z,63.63
2019-02-16T20:12:28.035Z,59.50
2019-02-16T20:17:58.023Z,56.23
2019-02-16T20:23:28.046Z,58.77
2019-02-16T20:28:48.919Z,55.77
2019-02-16T20:34:25.166Z,54.70
2019-02-16T20:39:49.116Z,56.73
2019-02-16T20:45:05.945Z,56.60
2019-02-16T20:50:28.752Z,56.23
2019-02-16T20:55:52.665Z,57.37
2019-02-16T21:01:15.092Z,59.90
2019-02-16T21:06:31.787Z,57.90
2019-02-16T21:11:56.822Z,60.83
2019-02-16T21:17:23.790Z,60.20
2019-02-16T21:22:50.517Z,59.27
2019-02-16T21:28:13.107Z,62.33
2019-02-16T21:33:26.040Z,60.27
2019-02-16T21:38:45.635Z,60.10
2019-02-16T21:44:21.897Z,71.33
2019-02-16T21:49:44.868Z,77.37
2019-02-16T21:54:58.865Z,71.00
2019-02-16T22:00:29.243Z,61.90
2019-02-16T22:06:03.649Z,52.73
2019-02-16T22:11:25.441Z,47.57
2019-02-16T22:16:30.440Z,43.83
2019-02-16T22:21:35.449Z,45.03
2019-02-16T22:26:40.468Z,43.00
2019-02-16T22:31:45.490Z,42.17
2019-02-16T22:36:50.492Z,44.13
2019-02-16T22:41:55.554Z,43.80
2019-02-16T22:47:00.554Z,44.07
2019-02-16T22:52:05.586Z,46.53
2019-02-16T22:57:10.574Z,46.13
2019-02-16T23:02:16.350Z,48.97
2019-02-16T23:07:21.361Z,48.53
2019-02-16T23:12:26.357Z,51.60
2019-02-16T23:17:31.348Z,48.97
2019-02-16T23:22:36.331Z,51.20
2019-02-16T23:27:41.520Z,50.33
2019-02-16T23:32:46.513Z,47.00
2019-02-16T23:37:51.513Z,45.73
2019-02-16T23:42:56.531Z,47.10
2019-02-16T23:48:01.536Z,46.97
2019-02-16T23:53:06.703Z,43.23
2019-02-16T23:58:11.732Z,45.43
